createdAt,value
2023-01-30T00:02:37.136Z,100174.15
2023-01-30T00:07:38.668Z,100166.29
2023-01-30T00:12:40.618Z,100152.11
2023-01-30T00:17:42.076Z,100145.77
2023-01-30T00:22:52.425Z,100137.13
2023-01-30T00:28:01.624Z,100132.88
2023-01-30T00:33:03.571Z,100121.09
2023-01-30T00:38:05.068Z,100110.59
2023-01-30T00:43:25.577Z,100104.64
2023-01-30T00:48:27.933Z,100091.32
2023-01-30T00:53:29.558Z,100078.95
2023-01-30T00:58:31.099Z,100065.18
2023-01-30T01:03:32.622Z,100046.82
2023-01-30T01:08:34.149Z,100033.34
2023-01-30T01:13:36.072Z,100020.15
2023-01-30T01:18:37.575Z,100009.80
2023-01-30T01:23:39.411Z,100006.21
2023-01-30T01:28:40.929Z,99990.66
2023-01-30T01:33:42.452Z,99978.85
2023-01-30T01:38:44.306Z,99968.48
2023-01-30T01:44:07.978Z,99950.48
2023-01-30T01:49:22.635Z,99932.23
2023-01-30T01:54:40.343Z,99917.85
2023-01-30T01:59:50.063Z,99910.21
2023-01-30T02:05:03.711Z,99900.02
2023-01-30T02:10:08.255Z,99882.77
2023-01-30T02:15:10.670Z,99867.70
2023-01-30T02:20:40.018Z,99865.45
2023-01-30T02:25:47.459Z,99854.41
2023-01-30T02:30:58.121Z,99857.52
2023-01-30T02:36:17.873Z,99855.98
2023-01-30T02:41:53.576Z,99852.07
2023-01-30T02:47:02.049Z,99841.05
2023-01-30T02:52:06.921Z,99837.34
2023-01-30T02:57:20.909Z,99828.52
2023-01-30T03:02:28.671Z,99818.20
2023-01-30T03:08:07.468Z,99808.33
2023-01-30T03:13:18.131Z,99797.34
2023-01-30T03:18:21.325Z,99791.77
2023-01-30T03:23:22.794Z,99783.60
2023-01-30T03:28:24.565Z,99772.05
2023-01-30T03:33:26.113Z,99764.27
2023-01-30T03:38:27.907Z,99743.44
2023-01-30T03:43:29.619Z,99726.33
2023-01-30T03:48:31.135Z,99709.02
2023-01-30T03:53:32.620Z,99689.02
2023-01-30T03:58:34.215Z,99672.76
2023-01-30T04:03:35.715Z,99670.37
2023-01-30T04:08:37.251Z,99667.48
2023-01-30T04:13:38.731Z,99667.97
2023-01-30T04:18:40.183Z,99659.33
2023-01-30T04:30:09.083Z,99630.52
2023-01-30T04:42:01.600Z,99596.17
2023-01-30T04:53:13.971Z,99560.98
2023-01-30T04:58:16.101Z,99553.36
2023-01-30T05:03:18.696Z,99550.66
2023-01-30T05:08:20.152Z,99536.91
2023-01-30T05:13:21.627Z,99525.25
2023-01-30T05:18:23.278Z,99523.91
2023-01-30T05:23:24.793Z,99522.04
2023-01-30T05:28:26.470Z,99520.50
2023-01-30T05:33:28.282Z,99505.42
2023-01-30T05:38:29.899Z,99492.92
2023-01-30T05:43:32.191Z,99477.35
2023-01-30T05:48:34.283Z,99459.23
2023-01-30T05:53:36.044Z,99454.48
2023-01-30T05:58:37.660Z,99441.78
2023-01-30T06:03:39.366Z,99435.02
2023-01-30T06:08:41.554Z,99422.16
2023-01-30T06:13:43.858Z,99417.08
2023-01-30T06:18:48.397Z,99411.30
2023-01-30T06:23:49.830Z,99413.70
2023-01-30T06:28:51.317Z,99398.64
2023-01-30T06:33:52.901Z,99394.73
2023-01-30T06:38:54.458Z,99375.78
2023-01-30T06:43:56.005Z,99360.90
2023-01-30T06:48:57.541Z,99345.33
2023-01-30T06:53:59.129Z,99336.02
2023-01-30T06:59:00.586Z,99332.48
2023-01-30T07:04:02.100Z,99342.95
2023-01-30T07:09:03.790Z,99335.02
2023-01-30T07:14:06.411Z,99348.04
2023-01-30T07:19:08.793Z,99338.89
2023-01-30T07:24:10.278Z,99332.47
2023-01-30T07:29:11.806Z,99326.88
2023-01-30T07:34:13.276Z,99315.05
2023-01-30T07:39:14.745Z,99298.30
2023-01-30T07:44:16.407Z,99302.03
2023-01-30T07:49:17.952Z,99297.96
2023-01-30T07:54:20.073Z,99296.95
2023-01-30T07:59:21.644Z,99291.19
2023-01-30T08:04:23.245Z,99275.47
2023-01-30T08:09:24.801Z,99261.77
2023-01-30T08:14:26.420Z,99259.23
2023-01-30T08:19:28.023Z,99248.41
2023-01-30T08:24:29.499Z,99238.61
2023-01-30T08:29:31.532Z,99240.45
2023-01-30T08:34:33.212Z,99236.06
2023-01-30T08:39:36.403Z,99237.41
2023-01-30T08:44:38.860Z,99231.00
2023-01-30T08:49:40.369Z,99221.19
2023-01-30T08:54:41.835Z,99217.98
2023-01-30T08:59:43.409Z,99211.36
2023-01-30T09:04:44.936Z,99208.32
2023-01-30T09:09:46.489Z,99201.22
2023-01-30T09:14:48.013Z,99187.71
2023-01-30T09:19:49.673Z,99173.01
2023-01-30T09:24:51.203Z,99168.07
2023-01-30T09:29:55.549Z,99162.81
2023-01-30T09:34:57.167Z,99146.73
2023-01-30T09:39:58.636Z,99134.88
2023-01-30T09:45:29.239Z,99121.98
2023-01-30T09:51:01.651Z,99124.01
2023-01-30T10:01:53.212Z,99114.11
2023-01-30T10:07:00.763Z,99100.36
2023-01-30T10:12:46.521Z,99096.47
2023-01-30T10:17:57.109Z,99086.09
2023-01-30T10:23:19.186Z,99072.45
2023-01-30T10:28:20.591Z,99069.25
2023-01-30T10:33:33.792Z,99059.67
2023-01-30T10:38:46.498Z,99051.73
2023-01-30T10:43:58.837Z,99038.21
2023-01-30T10:49:19.939Z,99027.91
2023-01-30T10:55:31.515Z,99021.33
2023-01-30T11:00:55.721Z,99010.27
2023-01-30T11:06:05.926Z,99005.18
2023-01-30T11:11:31.324Z,98992.95
2023-01-30T11:16:43.181Z,98990.63
2023-01-30T11:21:53.859Z,98982.94
2023-01-30T11:27:11.362Z,98979.25
2023-01-30T11:32:19.670Z,98969.27
2023-01-30T11:37:32.845Z,98962.44
2023-01-30T11:42:34.385Z,98952.60
2023-01-30T11:47:35.982Z,98946.89
2023-01-30T11:52:38.926Z,98937.16
2023-01-30T11:57:43.238Z,98933.36
2023-01-30T12:02:45.300Z,98928.38
2023-01-30T12:07:46.871Z,98916.69
2023-01-30T12:12:52.612Z,98914.22
2023-01-30T12:18:09.128Z,98908.81
2023-01-30T12:23:38.817Z,98909.33
2023-01-30T12:28:54.045Z,98901.02
2023-01-30T12:33:56.696Z,98901.30
2023-01-30T12:39:15.423Z,98902.52
2023-01-30T12:45:19.156Z,98902.84
2023-01-30T12:50:23.687Z,98903.44
2023-01-30T12:55:32.187Z,98905.63
2023-01-30T13:01:06.182Z,98905.57
2023-01-30T13:06:21.815Z,98904.92
2023-01-30T13:12:04.805Z,98903.66
2023-01-30T13:17:40.307Z,98897.34
2023-01-30T13:23:09.912Z,98896.52
2023-01-30T13:28:19.889Z,98897.25
2023-01-30T13:33:33.640Z,98891.71
2023-01-30T13:38:41.461Z,98888.06
2023-01-30T13:43:50.520Z,98884.67
2023-01-30T13:48:51.953Z,98886.27
2023-01-30T13:53:59.553Z,98882.14
2023-01-30T13:59:32.076Z,98881.65
2023-01-30T14:04:39.623Z,98881.71
2023-01-30T14:09:46.415Z,98877.70
2023-01-30T14:15:03.539Z,98875.95
2023-01-30T14:20:17.400Z,98875.84
2023-01-30T14:25:25.077Z,98880.31
2023-01-30T14:30:51.520Z,98895.00
2023-01-30T14:35:58.723Z,98895.60
2023-01-30T14:41:00.250Z,98904.63
2023-01-30T14:46:08.654Z,98907.92
2023-01-30T14:51:28.763Z,98913.77
2023-01-30T14:56:39.530Z,98916.27
2023-01-30T15:01:56.709Z,98912.55
2023-01-30T15:07:10.423Z,98911.94
2023-01-30T15:12:33.995Z,98912.85
2023-01-30T15:18:20.468Z,98918.41
2023-01-30T15:23:46.723Z,98924.74
2023-01-30T15:29:13.680Z,98925.45
2023-01-30T15:34:20.817Z,98917.58
2023-01-30T15:39:27.853Z,98926.86
2023-01-30T15:44:32.380Z,98938.95
2023-01-30T15:49:52.211Z,98935.69
2023-01-30T15:54:57.083Z,98938.66
2023-01-30T15:59:59.361Z,98943.96
2023-01-30T16:05:21.492Z,98954.20
2023-01-30T16:10:27.463Z,98965.45
2023-01-30T16:15:36.090Z,98977.92
2023-01-30T16:26:17.435Z,98982.29
2023-01-30T16:31:19.321Z,98983.38
2023-01-30T16:36:21.010Z,98984.88
2023-01-30T16:41:30.356Z,98982.56
2023-01-30T16:46:49.074Z,98973.95
2023-01-30T16:52:00.695Z,98973.88
2023-01-30T16:57:03.324Z,98968.30
2023-01-30T17:02:06.884Z,98968.82
2023-01-30T17:07:35.387Z,98970.27
2023-01-30T17:12:37.992Z,98970.52
2023-01-30T17:17:43.159Z,98978.77
2023-01-30T17:22:47.947Z,98974.27
2023-01-30T17:27:49.564Z,98967.48
2023-01-30T17:32:51.280Z,98965.15
2023-01-30T17:38:03.496Z,98973.98
2023-01-30T17:43:06.150Z,98972.05
2023-01-30T17:48:08.149Z,98973.54
2023-01-30T17:53:09.654Z,98975.82
2023-01-30T17:58:17.391Z,98975.10
2023-01-30T18:03:19.707Z,98976.19
2023-01-30T18:08:21.292Z,98975.34
2023-01-30T18:13:22.743Z,98978.23
2023-01-30T18:18:24.355Z,98988.09
2023-01-30T18:23:25.830Z,98994.77
2023-01-30T18:28:27.263Z,98990.48
2023-01-30T18:33:28.792Z,98987.75
2023-01-30T18:38:30.679Z,98994.20
2023-01-30T18:43:32.173Z,98995.95
2023-01-30T18:48:34.873Z,98998.76
2023-01-30T18:53:36.541Z,99002.13
2023-01-30T18:58:38.549Z,98997.55
2023-01-30T19:03:40.640Z,99005.56
2023-01-30T19:08:42.095Z,99002.60
2023-01-30T19:13:43.562Z,98998.09
2023-01-30T19:18:45.094Z,98989.94
2023-01-30T19:23:47.259Z,98999.48
2023-01-30T19:28:49.113Z,99003.21
2023-01-30T19:33:59.034Z,99004.13
2023-01-30T19:39:03.521Z,99001.30
2023-01-30T19:44:07.060Z,98999.39
2023-01-30T19:49:11.731Z,98997.41
2023-01-30T19:54:13.359Z,98993.73
2023-01-30T19:59:16.704Z,98994.49
2023-01-30T20:04:18.463Z,98997.00
2023-01-30T20:09:20.185Z,99003.67
2023-01-30T20:14:21.760Z,99000.06
2023-01-30T20:19:23.411Z,98998.95
2023-01-30T20:24:25.025Z,98997.02
2023-01-30T20:29:26.896Z,99001.13
2023-01-30T20:34:28.508Z,99007.33
2023-01-30T20:39:29.986Z,99015.41
2023-01-30T20:44:31.501Z,99017.16
2023-01-30T20:49:33.059Z,99011.27
2023-01-30T20:54:34.591Z,99023.42
2023-01-30T20:59:36.439Z,99028.09
2023-01-30T21:04:38.395Z,99040.09
2023-01-30T21:09:39.885Z,99056.92
2023-01-30T21:14:41.327Z,99066.27
2023-01-30T21:19:43.862Z,99065.98
2023-01-30T21:24:45.373Z,99068.77
2023-01-30T21:29:46.922Z,99074.20
2023-01-30T21:34:48.388Z,99082.42
2023-01-30T21:40:08.367Z,99083.80
2023-01-30T21:45:11.188Z,99085.42
2023-01-30T21:50:12.649Z,99093.86
2023-01-30T21:55:14.249Z,99089.80
2023-01-30T22:00:15.829Z,99091.23
2023-01-30T22:05:18.102Z,99093.75
2023-01-30T22:10:19.918Z,99096.11
2023-01-30T22:15:22.691Z,99097.06
2023-01-30T22:20:24.262Z,99096.30
2023-01-30T22:25:25.777Z,99103.76
2023-01-30T22:30:27.287Z,99116.46
2023-01-30T22:35:28.967Z,99121.59
2023-01-30T22:40:30.428Z,99120.11
2023-01-30T22:45:34.926Z,99130.59
2023-01-30T22:50:36.927Z,99126.98
2023-01-30T22:55:39.258Z,99128.33
2023-01-30T23:00:40.805Z,99121.08
2023-01-30T23:05:42.340Z,99124.42
2023-01-30T23:10:43.787Z,99132.19
2023-01-30T23:15:46.729Z,99146.94
2023-01-30T23:20:48.192Z,99149.50
2023-01-30T23:25:49.687Z,99148.17
2023-01-30T23:30:51.163Z,99151.28
2023-01-30T23:35:52.678Z,99150.70
2023-01-30T23:40:54.190Z,99147.75
2023-01-30T23:45:56.011Z,99150.68
2023-01-30T23:51:01.479Z,99154.23
2023-01-30T23:56:04.299Z,99162.89
